Time;durP1;ratioP1;P1;durP2;ratioP2;P2;SDS_P1;SDS_P2;PMS_P1;PMS_P2;Temp;Humidity;BMP_temperature;BMP_pressure;BME280_temperature;BME280_humidity;BME280_pressure;Samples;Min_cycle;Max_cycle;Signal;HPM_P1;HPM_P2
2023/07/25 00:01:16;;;;;;;5.70;3.20;;;;;;;;;;6258209;28;20244;-66
2023/07/25 00:04:17;;;;;;;8.13;3.17;;;;;;;;;;6268071;28;20197;-66
2023/07/25 00:07:18;;;;;;;4.80;3.27;;;;;;;;;;6248649;28;20263;-66
2023/07/25 00:10:19;;;;;;;6.37;3.33;;;;;;;;;;6267330;28;20202;-66
2023/07/25 00:13:20;;;;;;;7.50;3.40;;;;;;;;;;6248300;28;20190;-66
2023/07/25 00:16:21;;;;;;;7.43;3.80;;;;;;;;;;6253391;28;20197;-66
2023/07/25 00:19:23;;;;;;;6.23;3.53;;;;;;;;;;6245976;28;20293;-66
2023/07/25 00:22:24;;;;;;;6.87;3.43;;;;;;;;;;6255198;28;20201;-66
2023/07/25 00:25:25;;;;;;;6.50;3.83;;;;;;;;;;6247397;28;20235;-66
2023/07/25 00:28:26;;;;;;;6.87;3.47;;;;;;;;;;6277873;28;20315;-66
2023/07/25 00:31:27;;;;;;;7.70;3.43;;;;;;;;;;6264960;28;20350;-66
2023/07/25 00:34:28;;;;;;;5.20;3.40;;;;;;;;;;6276711;28;20287;-66
2023/07/25 00:37:30;;;;;;;4.77;2.73;;;;;;;;;;6244053;28;20202;-66
2023/07/25 00:40:31;;;;;;;7.10;3.20;;;;;;;;;;6263179;28;20224;-66
2023/07/25 00:43:32;;;;;;;6.40;3.40;;;;;;;;;;6257229;28;20197;-66
2023/07/25 00:46:33;;;;;;;7.27;3.60;;;;;;;;;;6248946;28;20202;-66
2023/07/25 00:49:34;;;;;;;5.00;3.30;;;;;;;;;;6240119;28;20253;-66
2023/07/25 00:52:35;;;;;;;6.10;3.70;;;;;;;;;;6248949;28;20211;-66
2023/07/25 00:55:36;;;;;;;5.53;3.70;;;;;;;;;;6251430;28;20234;-66
2023/07/25 00:58:37;;;;;;;6.47;3.90;;;;;;;;;;6260501;28;20222;-66
2023/07/25 01:01:38;;;;;;;5.13;3.40;;;;;;;;;;6256577;28;20194;-66
2023/07/25 01:04:40;;;;;;;4.73;3.37;;;;;;;;;;6270999;28;20190;-66
2023/07/25 01:07:41;;;;;;;6.23;3.00;;;;;;;;;;6247028;28;20217;-66
2023/07/25 01:10:42;;;;;;;5.50;3.43;;;;;;;;;;6248150;28;20239;-66
2023/07/25 01:13:43;;;;;;;5.07;3.43;;;;;;;;;;6232687;28;20197;-66
2023/07/25 01:16:44;;;;;;;5.17;3.50;;;;;;;;;;6269576;28;20201;-66
2023/07/25 01:19:46;;;;;;;4.60;3.13;;;;;;;;;;6265897;28;20217;-66
2023/07/25 01:22:47;;;;;;;6.70;3.13;;;;;;;;;;6245680;28;20221;-66
2023/07/25 01:25:48;;;;;;;5.67;2.80;;;;;;;;;;6262502;28;20209;-66
2023/07/25 01:28:49;;;;;;;7.23;3.50;;;;;;;;;;6248682;28;20233;-66
2023/07/25 01:31:50;;;;;;;5.03;3.43;;;;;;;;;;6231621;28;20237;-66
2023/07/25 01:34:51;;;;;;;7.97;3.27;;;;;;;;;;6241958;28;20208;-66
2023/07/25 01:37:52;;;;;;;7.87;3.60;;;;;;;;;;6248739;28;20193;-66
2023/07/25 01:40:53;;;;;;;6.13;3.13;;;;;;;;;;6275825;28;20194;-66
2023/07/25 01:43:55;;;;;;;5.47;3.20;;;;;;;;;;6241232;28;20226;-66
2023/07/25 01:46:59;;;;;;;3.90;3.17;;;;;;;;;;6253004;28;20205;-66
2023/07/25 01:50:00;;;;;;;5.77;3.50;;;;;;;;;;6261962;28;20188;-66
2023/07/25 01:53:01;;;;;;;3.53;2.90;;;;;;;;;;6262683;28;20187;-66
2023/07/25 01:56:02;;;;;;;4.37;2.90;;;;;;;;;;6266969;28;20320;-66
2023/07/25 01:59:03;;;;;;;5.20;2.73;;;;;;;;;;6251689;28;20221;-66
2023/07/25 02:02:04;;;;;;;4.40;3.33;;;;;;;;;;6244599;28;20204;-66
2023/07/25 02:05:05;;;;;;;6.07;3.20;;;;;;;;;;6250804;28;20198;-66
2023/07/25 02:08:06;;;;;;;5.43;3.17;;;;;;;;;;6248356;28;20207;-66
2023/07/25 02:11:08;;;;;;;4.67;3.40;;;;;;;;;;6243521;28;20226;-66
2023/07/25 02:14:09;;;;;;;3.67;3.03;;;;;;;;;;6254986;28;20179;-66
2023/07/25 02:17:10;;;;;;;4.30;2.70;;;;;;;;;;6251486;28;20194;-66
2023/07/25 02:20:11;;;;;;;5.53;3.13;;;;;;;;;;6259280;28;20185;-66
2023/07/25 02:23:12;;;;;;;6.73;3.73;;;;;;;;;;6246647;28;20196;-66
2023/07/25 02:26:13;;;;;;;5.20;3.13;;;;;;;;;;6231081;28;20190;-66
2023/07/25 02:29:14;;;;;;;5.30;3.07;;;;;;;;;;6257461;28;20234;-66
2023/07/25 02:32:15;;;;;;;4.83;3.40;;;;;;;;;;6233472;28;20289;-66
2023/07/25 02:35:16;;;;;;;5.27;2.87;;;;;;;;;;6247383;28;20204;-66
2023/07/25 02:38:18;;;;;;;5.33;3.30;;;;;;;;;;6244936;28;20201;-66
2023/07/25 02:41:19;;;;;;;7.50;3.40;;;;;;;;;;6251174;28;20214;-66
2023/07/25 02:44:20;;;;;;;6.33;3.43;;;;;;;;;;6245157;28;20233;-66
2023/07/25 02:47:21;;;;;;;6.93;3.67;;;;;;;;;;6245056;28;20222;-66
2023/07/25 02:50:22;;;;;;;5.77;3.50;;;;;;;;;;6252357;28;20199;-66
2023/07/25 02:53:24;;;;;;;4.10;3.10;;;;;;;;;;6283187;28;20205;-66
2023/07/25 02:56:26;;;;;;;4.30;3.30;;;;;;;;;;6260963;28;20185;-66
2023/07/25 02:59:29;;;;;;;5.80;3.10;;;;;;;;;;6255040;28;20336;-66
2023/07/25 03:02:30;;;;;;;4.43;2.90;;;;;;;;;;6263282;28;20290;-66
2023/07/25 03:05:31;;;;;;;4.13;3.27;;;;;;;;;;6246470;28;20197;-66
2023/07/25 03:08:32;;;;;;;6.67;3.33;;;;;;;;;;6270357;28;20252;-66
2023/07/25 03:11:33;;;;;;;4.77;3.20;;;;;;;;;;6261975;28;20201;-66
2023/07/25 03:14:34;;;;;;;4.13;3.07;;;;;;;;;;6260872;28;20280;-66
2023/07/25 03:17:35;;;;;;;6.20;3.23;;;;;;;;;;6246814;28;20194;-66
2023/07/25 03:20:36;;;;;;;4.23;3.27;;;;;;;;;;6261615;28;20213;-66
2023/07/25 03:23:37;;;;;;;4.77;3.27;;;;;;;;;;6248064;28;20202;-66
2023/07/25 03:26:38;;;;;;;2.97;2.63;;;;;;;;;;6260885;28;20220;-66
2023/07/25 03:29:39;;;;;;;5.30;3.57;;;;;;;;;;6252823;28;20250;-66
2023/07/25 03:32:40;;;;;;;4.90;3.17;;;;;;;;;;6250600;28;20222;-66
2023/07/25 03:35:41;;;;;;;4.93;3.17;;;;;;;;;;6268728;28;20229;-66
2023/07/25 03:38:44;;;;;;;7.27;3.33;;;;;;;;;;6270476;28;20242;-66
2023/07/25 03:41:45;;;;;;;3.97;3.60;;;;;;;;;;6247689;28;20216;-66
2023/07/25 03:44:46;;;;;;;4.77;3.57;;;;;;;;;;6261445;28;20204;-66
2023/07/25 03:47:47;;;;;;;3.63;3.20;;;;;;;;;;6251664;28;20297;-66
2023/07/25 03:50:48;;;;;;;6.80;3.30;;;;;;;;;;6256767;28;20182;-66
2023/07/25 03:53:49;;;;;;;5.00;3.67;;;;;;;;;;6252831;28;20194;-66
2023/07/25 03:56:50;;;;;;;4.63;3.70;;;;;;;;;;6271361;28;20197;-66
2023/07/25 03:59:51;;;;;;;4.77;3.80;;;;;;;;;;6267394;28;20211;-66
2023/07/25 04:02:52;;;;;;;4.93;3.63;;;;;;;;;;6253764;28;20190;-66
2023/07/25 04:05:53;;;;;;;3.43;3.03;;;;;;;;;;6249034;28;20198;-66
2023/07/25 04:08:54;;;;;;;7.07;3.77;;;;;;;;;;6245573;28;20245;-66
2023/07/25 04:11:55;;;;;;;4.97;3.37;;;;;;;;;;6247820;28;20305;-66
2023/07/25 04:14:57;;;;;;;5.20;3.70;;;;;;;;;;6272570;28;20272;-66
2023/07/25 04:17:58;;;;;;;4.33;3.37;;;;;;;;;;6257171;28;20276;-66
2023/07/25 04:20:59;;;;;;;6.73;3.50;;;;;;;;;;6244768;28;20186;-66
2023/07/25 04:24:00;;;;;;;9.67;4.37;;;;;;;;;;6252300;28;20191;-66
2023/07/25 04:27:01;;;;;;;9.17;4.00;;;;;;;;;;6248970;28;20251;-66
2023/07/25 04:30:02;;;;;;;4.63;3.40;;;;;;;;;;6279448;28;20248;-66
2023/07/25 04:33:03;;;;;;;5.87;3.17;;;;;;;;;;6256408;28;20190;-66
2023/07/25 04:36:04;;;;;;;4.90;3.17;;;;;;;;;;6256134;28;20193;-66
2023/07/25 04:39:05;;;;;;;6.93;3.43;;;;;;;;;;6254615;28;20201;-66
2023/07/25 04:42:06;;;;;;;6.83;3.90;;;;;;;;;;6240032;28;20193;-68
2023/07/25 04:45:08;;;;;;;4.23;3.70;;;;;;;;;;6255135;28;20188;-68
2023/07/25 04:48:09;;;;;;;5.87;3.80;;;;;;;;;;6239004;28;20251;-68
2023/07/25 04:51:10;;;;;;;4.43;3.70;;;;;;;;;;6264694;28;20183;-68
2023/07/25 04:54:11;;;;;;;4.10;3.47;;;;;;;;;;6254414;28;20239;-68
2023/07/25 04:57:12;;;;;;;4.73;4.07;;;;;;;;;;6252820;28;20193;-68
2023/07/25 05:00:13;;;;;;;6.23;4.37;;;;;;;;;;6262810;28;20190;-68
2023/07/25 05:03:14;;;;;;;3.97;3.37;;;;;;;;;;6249393;28;20246;-68
2023/07/25 05:06:15;;;;;;;5.17;3.50;;;;;;;;;;6247938;28;20294;-68
2023/07/25 05:09:18;;;;;;;5.47;4.07;;;;;;;;;;6247659;28;20217;-68
2023/07/25 05:12:19;;;;;;;3.87;3.20;;;;;;;;;;6245220;28;20194;-68
2023/07/25 05:15:20;;;;;;;5.97;4.23;;;;;;;;;;6245103;28;20228;-68
2023/07/25 05:18:21;;;;;;;6.07;4.17;;;;;;;;;;6244623;28;20227;-68
2023/07/25 05:21:22;;;;;;;6.30;4.30;;;;;;;;;;6272013;28;20217;-68
2023/07/25 05:24:23;;;;;;;6.20;4.10;;;;;;;;;;6246708;28;20289;-68
2023/07/25 05:27:25;;;;;;;9.37;4.03;;;;;;;;;;6257818;28;20206;-68
2023/07/25 05:30:26;;;;;;;4.70;3.43;;;;;;;;;;6278570;28;20233;-68
2023/07/25 05:33:27;;;;;;;4.37;3.50;;;;;;;;;;6267204;28;20181;-68
2023/07/25 05:36:28;;;;;;;4.63;3.53;;;;;;;;;;6253095;28;20209;-68
2023/07/25 05:39:29;;;;;;;5.80;4.07;;;;;;;;;;6242309;28;20221;-68
2023/07/25 05:42:30;;;;;;;4.40;3.70;;;;;;;;;;6259617;28;20196;-68
2023/07/25 05:45:31;;;;;;;5.13;3.73;;;;;;;;;;6260725;28;20194;-68
2023/07/25 05:48:32;;;;;;;7.10;3.90;;;;;;;;;;6276677;28;20216;-68
2023/07/25 05:51:33;;;;;;;4.40;3.40;;;;;;;;;;6264383;28;20184;-68
2023/07/25 05:54:34;;;;;;;3.77;3.37;;;;;;;;;;6245586;28;20201;-68
2023/07/25 05:57:35;;;;;;;3.77;3.27;;;;;;;;;;6247534;28;20211;-68
2023/07/25 06:00:38;;;;;;;6.07;3.93;;;;;;;;;;6244911;28;20228;-68
2023/07/25 06:03:39;;;;;;;4.20;3.80;;;;;;;;;;6252167;28;20205;-68
2023/07/25 06:06:40;;;;;;;7.70;3.70;;;;;;;;;;6252055;28;20284;-69
2023/07/25 06:09:42;;;;;;;5.80;3.70;;;;;;;;;;6261464;28;20201;-69
2023/07/25 06:12:44;;;;;;;5.03;3.53;;;;;;;;;;6252235;28;20210;-69
2023/07/25 06:15:45;;;;;;;8.27;4.00;;;;;;;;;;6242863;28;20199;-69
2023/07/25 06:18:46;;;;;;;5.90;3.10;;;;;;;;;;6237587;28;20285;-69
2023/07/25 06:21:47;;;;;;;4.90;3.30;;;;;;;;;;6250800;28;20193;-69
2023/07/25 06:24:48;;;;;;;6.07;3.93;;;;;;;;;;6250697;28;20190;-69
2023/07/25 06:27:49;;;;;;;6.00;4.13;;;;;;;;;;6246184;28;20213;-69
2023/07/25 06:30:50;;;;;;;6.07;4.13;;;;;;;;;;6269030;28;20299;-69
2023/07/25 06:33:51;;;;;;;7.03;4.60;;;;;;;;;;6251536;28;20187;-69
2023/07/25 06:36:55;;;;;;;6.10;4.77;;;;;;;;;;6240305;28;20194;-69
2023/07/25 06:39:59;;;;;;;7.30;4.80;;;;;;;;;;6252007;28;20195;-69
2023/07/25 06:43:00;;;;;;;6.93;5.03;;;;;;;;;;6248398;28;21339;-69
2023/07/25 06:46:01;;;;;;;7.53;4.50;;;;;;;;;;6244951;28;20249;-69
2023/07/25 06:49:02;;;;;;;12.23;6.53;;;;;;;;;;6244936;28;20207;-69
2023/07/25 06:52:03;;;;;;;23.03;9.80;;;;;;;;;;6255411;28;20198;-69
2023/07/25 06:55:06;;;;;;;17.30;8.43;;;;;;;;;;6245936;28;20198;-70
2023/07/25 06:58:07;;;;;;;14.63;7.83;;;;;;;;;;6270149;28;20194;-70
2023/07/25 07:01:08;;;;;;;10.80;6.70;;;;;;;;;;6240328;28;20190;-70
2023/07/25 07:04:09;;;;;;;17.50;8.00;;;;;;;;;;6245542;28;20194;-69
2023/07/25 07:07:10;;;;;;;8.80;6.63;;;;;;;;;;6250618;28;20254;-69
2023/07/25 07:10:11;;;;;;;8.90;6.63;;;;;;;;;;6274806;28;20190;-69
2023/07/25 07:13:12;;;;;;;13.43;6.93;;;;;;;;;;6244428;28;20240;-69
2023/07/25 07:16:13;;;;;;;9.90;7.63;;;;;;;;;;6247351;28;20191;-69
2023/07/25 07:19:14;;;;;;;12.90;8.27;;;;;;;;;;6249578;28;20182;-69
2023/07/25 07:22:15;;;;;;;24.87;10.30;;;;;;;;;;6247703;28;20221;-69
2023/07/25 07:25:16;;;;;;;15.93;7.77;;;;;;;;;;6246503;28;20234;-69
2023/07/25 07:28:17;;;;;;;12.93;7.23;;;;;;;;;;6260891;28;20240;-69
2023/07/25 07:31:23;;;;;;;14.40;7.23;;;;;;;;;;6253158;28;20189;-69
2023/07/25 07:34:25;;;;;;;19.67;8.33;;;;;;;;;;6264702;28;20191;-69
2023/07/25 07:37:26;;;;;;;10.33;6.53;;;;;;;;;;6248247;28;20269;-69
2023/07/25 07:40:28;;;;;;;12.30;7.33;;;;;;;;;;6249729;28;20205;-69
2023/07/25 07:43:29;;;;;;;10.93;6.53;;;;;;;;;;6248169;28;20245;-69
2023/07/25 07:46:31;;;;;;;14.90;6.87;;;;;;;;;;6247698;28;20182;-68
2023/07/25 07:49:35;;;;;;;10.13;7.03;;;;;;;;;;6246595;28;20231;-68
2023/07/25 07:52:40;;;;;;;10.33;6.53;;;;;;;;;;6254857;28;20183;-68
2023/07/25 07:55:42;;;;;;;10.30;6.90;;;;;;;;;;6246427;28;20191;-68
2023/07/25 07:58:43;;;;;;;9.70;6.37;;;;;;;;;;6266027;28;20193;-68
2023/07/25 08:01:44;;;;;;;7.73;5.17;;;;;;;;;;6257955;28;20190;-68
2023/07/25 08:04:45;;;;;;;7.83;6.23;;;;;;;;;;6250106;28;20223;-68
2023/07/25 08:07:46;;;;;;;8.33;6.03;;;;;;;;;;6250057;28;20233;-69
2023/07/25 08:10:47;;;;;;;8.60;6.33;;;;;;;;;;6251746;28;20217;-69
2023/07/25 08:13:48;;;;;;;5.77;4.87;;;;;;;;;;6257622;28;20189;-69
2023/07/25 08:16:50;;;;;;;7.43;5.57;;;;;;;;;;6249739;28;20192;-69
2023/07/25 08:19:51;;;;;;;8.80;6.63;;;;;;;;;;6256861;28;20195;-69
2023/07/25 08:22:52;;;;;;;12.90;7.57;;;;;;;;;;6268898;28;20282;-69
2023/07/25 08:25:55;;;;;;;11.33;6.60;;;;;;;;;;6266959;28;20197;-69
2023/07/25 08:28:56;;;;;;;9.07;6.53;;;;;;;;;;6260737;28;20241;-68
2023/07/25 08:31:57;;;;;;;9.37;6.30;;;;;;;;;;6247878;28;20202;-68
2023/07/25 08:34:58;;;;;;;10.53;6.50;;;;;;;;;;6250186;28;20182;-68
2023/07/25 08:37:59;;;;;;;9.80;7.13;;;;;;;;;;6254131;28;20284;-68
2023/07/25 08:41:08;;;;;;;8.40;6.10;;;;;;;;;;6256384;28;20190;-68
2023/07/25 08:44:12;;;;;;;8.27;5.83;;;;;;;;;;6273400;28;20186;-69
2023/07/25 08:47:17;;;;;;;7.00;5.53;;;;;;;;;;6259809;28;20278;-69
2023/07/25 08:50:20;;;;;;;8.33;5.70;;;;;;;;;;6271246;28;20193;-69
2023/07/25 08:53:23;;;;;;;7.37;6.03;;;;;;;;;;6267600;28;20257;-69
2023/07/25 08:56:25;;;;;;;9.97;6.60;;;;;;;;;;6264340;28;20183;-69
2023/07/25 08:59:26;;;;;;;5.57;5.00;;;;;;;;;;6250220;28;20186;-69
2023/07/25 09:02:28;;;;;;;10.77;6.47;;;;;;;;;;6270147;28;20185;-69
2023/07/25 09:05:30;;;;;;;8.03;5.73;;;;;;;;;;6249480;28;20214;-69
2023/07/25 09:08:31;;;;;;;9.83;6.60;;;;;;;;;;6251430;28;20206;-69
2023/07/25 09:11:33;;;;;;;7.00;5.20;;;;;;;;;;6234716;28;20236;-69
2023/07/25 09:14:39;;;;;;;7.27;5.60;;;;;;;;;;6247876;28;20190;-69
2023/07/25 09:17:40;;;;;;;7.57;6.00;;;;;;;;;;6250858;28;20186;-69
2023/07/25 09:20:41;;;;;;;6.10;5.47;;;;;;;;;;6243245;28;20197;-69
2023/07/25 09:23:51;;;;;;;8.33;5.83;;;;;;;;;;6258594;28;20193;-69
2023/07/25 09:26:52;;;;;;;9.63;5.67;;;;;;;;;;6251030;28;20253;-69
2023/07/25 09:29:54;;;;;;;6.63;5.40;;;;;;;;;;6258228;28;20238;-69
2023/07/25 09:32:55;;;;;;;8.67;6.20;;;;;;;;;;6257994;28;20216;-69
2023/07/25 09:35:56;;;;;;;8.57;5.97;;;;;;;;;;6258975;28;20186;-69
2023/07/25 09:38:58;;;;;;;6.43;5.77;;;;;;;;;;6248279;28;20228;-69
2023/07/25 09:42:00;;;;;;;7.17;5.80;;;;;;;;;;6260530;28;20202;-69
2023/07/25 09:45:01;;;;;;;6.33;5.47;;;;;;;;;;6263902;28;20337;-69
2023/07/25 09:48:03;;;;;;;9.13;6.17;;;;;;;;;;6266041;28;20300;-69
2023/07/25 09:51:04;;;;;;;8.47;5.63;;;;;;;;;;6246300;28;20261;-69
2023/07/25 09:54:05;;;;;;;11.67;6.00;;;;;;;;;;6249966;28;20188;-69
2023/07/25 09:57:07;;;;;;;8.10;5.67;;;;;;;;;;6248533;28;20265;-69
2023/07/25 10:00:09;;;;;;;6.53;5.40;;;;;;;;;;6246286;28;20213;-69
2023/07/25 10:03:10;;;;;;;6.47;5.73;;;;;;;;;;6247372;28;20192;-69
2023/07/25 10:06:14;;;;;;;7.53;5.83;;;;;;;;;;6248907;28;20281;-69
2023/07/25 10:09:17;;;;;;;8.27;6.00;;;;;;;;;;6252918;28;20305;-69
2023/07/25 10:12:18;;;;;;;7.60;5.93;;;;;;;;;;6259614;28;20261;-69
2023/07/25 10:15:19;;;;;;;11.13;7.03;;;;;;;;;;6232917;28;20273;-69
2023/07/25 10:18:22;;;;;;;10.57;5.67;;;;;;;;;;6268660;28;20202;-69
2023/07/25 10:21:27;;;;;;;7.73;6.93;;;;;;;;;;6251513;28;20274;-69
2023/07/25 10:24:34;;;;;;;10.40;7.00;;;;;;;;;;6260700;28;20282;-69
2023/07/25 10:27:35;;;;;;;9.50;6.67;;;;;;;;;;6250131;28;20260;-69
2023/07/25 10:30:45;;;;;;;7.13;6.40;;;;;;;;;;6251645;28;20236;-69
2023/07/25 10:33:51;;;;;;;6.70;5.77;;;;;;;;;;6259664;28;20193;-69
2023/07/25 10:37:12;;;;;;;7.67;6.53;;;;;;;;;;6246369;28;20214;-69
2023/07/25 10:40:14;;;;;;;6.77;6.03;;;;;;;;;;6263931;28;20193;-69
2023/07/25 10:43:15;;;;;;;9.73;6.83;;;;;;;;;;6265582;28;20183;-69
2023/07/25 10:46:17;;;;;;;6.33;5.73;;;;;;;;;;6257774;28;20189;-69
2023/07/25 10:49:18;;;;;;;6.50;5.77;;;;;;;;;;6255332;28;20228;-69
2023/07/25 10:52:39;;;;;;;6.53;5.60;;;;;;;;;;6246607;28;20197;-69
2023/07/25 10:56:00;;;;;;;6.50;5.80;;;;;;;;;;6255625;28;20191;-69
2023/07/25 10:59:02;;;;;;;8.17;6.07;;;;;;;;;;6254654;28;20193;-69
2023/07/25 11:02:03;;;;;;;7.87;5.97;;;;;;;;;;6264807;28;20218;-69
2023/07/25 11:05:20;;;;;;;6.17;5.57;;;;;;;;;;6254987;28;20193;-69
2023/07/25 11:08:21;;;;;;;8.13;6.27;;;;;;;;;;6254044;28;20241;-69
2023/07/25 11:11:22;;;;;;;5.70;5.10;;;;;;;;;;6247244;28;20194;-69
2023/07/25 11:14:24;;;;;;;6.33;5.20;;;;;;;;;;6250942;28;20190;-69
2023/07/25 11:17:28;;;;;;;6.37;5.50;;;;;;;;;;6253724;28;20284;-69
2023/07/25 11:20:29;;;;;;;5.93;5.33;;;;;;;;;;6265684;28;20191;-69
2023/07/25 11:23:30;;;;;;;6.30;4.90;;;;;;;;;;6265385;28;20187;-69
2023/07/25 11:26:32;;;;;;;5.40;4.67;;;;;;;;;;6263731;28;20206;-69
2023/07/25 11:29:33;;;;;;;6.17;4.97;;;;;;;;;;6254558;28;20242;-69
2023/07/25 11:32:34;;;;;;;5.27;4.77;;;;;;;;;;6282410;28;20248;-69
2023/07/25 11:35:35;;;;;;;6.10;5.20;;;;;;;;;;6285719;28;20193;-69
2023/07/25 11:38:36;;;;;;;5.60;5.07;;;;;;;;;;6247986;28;20202;-69
2023/07/25 11:41:38;;;;;;;5.87;5.00;;;;;;;;;;6268374;28;20198;-69
2023/07/25 11:44:39;;;;;;;4.93;4.40;;;;;;;;;;6263516;28;20182;-69
2023/07/25 11:47:41;;;;;;;5.90;4.67;;;;;;;;;;6254838;28;20307;-69
2023/07/25 11:50:43;;;;;;;5.00;4.10;;;;;;;;;;6251832;28;20197;-69
2023/07/25 11:53:45;;;;;;;5.63;4.87;;;;;;;;;;6280522;28;20213;-69
2023/07/25 11:56:46;;;;;;;5.27;4.50;;;;;;;;;;6263811;28;20213;-69
2023/07/25 11:59:52;;;;;;;5.30;4.77;;;;;;;;;;6284284;28;20243;-69
2023/07/25 12:02:53;;;;;;;7.80;4.97;;;;;;;;;;6269321;28;20194;-69
2023/07/25 12:05:56;;;;;;;5.03;4.53;;;;;;;;;;6250550;28;20193;-69
2023/07/25 12:08:57;;;;;;;4.97;4.57;;;;;;;;;;6258950;28;20218;-69
2023/07/25 12:11:58;;;;;;;6.97;5.20;;;;;;;;;;6265528;28;20255;-68
2023/07/25 12:15:02;;;;;;;8.63;5.63;;;;;;;;;;6244010;28;20228;-68
2023/07/25 12:18:03;;;;;;;7.63;5.37;;;;;;;;;;6262454;28;20218;-68
2023/07/25 12:21:05;;;;;;;10.57;6.03;;;;;;;;;;6249041;28;20198;-68
2023/07/25 12:24:07;;;;;;;11.97;6.73;;;;;;;;;;6270943;28;20195;-68
2023/07/25 12:27:26;;;;;;;9.20;6.23;;;;;;;;;;6261856;28;20195;-68
2023/07/25 12:30:27;;;;;;;6.83;6.10;;;;;;;;;;6254981;28;20283;-68
2023/07/25 12:33:28;;;;;;;8.13;6.90;;;;;;;;;;6258267;28;20280;-68
2023/07/25 12:36:29;;;;;;;7.67;6.20;;;;;;;;;;6266280;28;20186;-68
2023/07/25 12:39:30;;;;;;;6.17;5.60;;;;;;;;;;6245855;28;20197;-68
2023/07/25 12:42:31;;;;;;;8.03;6.23;;;;;;;;;;6247748;28;20186;-68
2023/07/25 12:45:32;;;;;;;8.70;6.40;;;;;;;;;;6270555;28;20256;-68
2023/07/25 12:48:33;;;;;;;7.30;6.20;;;;;;;;;;6277606;28;20249;-68
2023/07/25 12:51:34;;;;;;;7.63;6.20;;;;;;;;;;6251545;28;20194;-68
2023/07/25 12:54:36;;;;;;;8.40;7.23;;;;;;;;;;6255213;28;20202;-68
2023/07/25 12:57:37;;;;;;;7.00;5.57;;;;;;;;;;6248529;28;20204;-68
2023/07/25 13:00:38;;;;;;;9.20;6.20;;;;;;;;;;6250315;28;20205;-68
2023/07/25 13:03:43;;;;;;;7.47;6.07;;;;;;;;;;6255711;28;20209;-68
2023/07/25 13:06:44;;;;;;;7.77;6.53;;;;;;;;;;6267827;28;20220;-68
2023/07/25 13:09:45;;;;;;;7.23;6.53;;;;;;;;;;6244856;28;20206;-68
2023/07/25 13:12:46;;;;;;;7.47;6.73;;;;;;;;;;6251349;28;20191;-68
2023/07/25 13:15:47;;;;;;;8.63;7.73;;;;;;;;;;6247787;28;20280;-68
2023/07/25 13:18:48;;;;;;;7.67;6.87;;;;;;;;;;6245757;28;20198;-68
2023/07/25 13:21:49;;;;;;;8.37;6.80;;;;;;;;;;6263382;28;20201;-68
2023/07/25 13:24:55;;;;;;;6.60;5.93;;;;;;;;;;6246739;28;20285;-68
2023/07/25 13:27:56;;;;;;;7.10;5.20;;;;;;;;;;6268363;28;20285;-68
2023/07/25 13:30:57;;;;;;;7.50;5.37;;;;;;;;;;6245369;28;20379;-68
2023/07/25 13:33:58;;;;;;;5.23;4.70;;;;;;;;;;6263794;28;20273;-68
2023/07/25 13:36:59;;;;;;;4.40;4.00;;;;;;;;;;6268176;28;20199;-68
2023/07/25 13:40:00;;;;;;;5.97;5.27;;;;;;;;;;6255490;28;20495;-68
2023/07/25 13:43:01;;;;;;;5.57;4.77;;;;;;;;;;6257086;28;20213;-68
2023/07/25 13:46:02;;;;;;;5.33;4.60;;;;;;;;;;6245855;28;20209;-68
2023/07/25 13:49:03;;;;;;;5.63;5.03;;;;;;;;;;6252770;28;20232;-68
2023/07/25 13:52:04;;;;;;;5.00;4.20;;;;;;;;;;6246083;28;20178;-68
2023/07/25 13:55:05;;;;;;;5.57;4.97;;;;;;;;;;6250235;28;20185;-68
2023/07/25 13:58:06;;;;;;;4.77;4.27;;;;;;;;;;6250459;28;20194;-68
2023/07/25 14:01:07;;;;;;;5.07;4.10;;;;;;;;;;6237845;28;20205;-68
2023/07/25 14:04:09;;;;;;;4.43;4.03;;;;;;;;;;6245637;28;20197;-68
2023/07/25 14:07:10;;;;;;;4.50;4.10;;;;;;;;;;6254710;28;20224;-68
2023/07/25 14:10:13;;;;;;;3.93;3.57;;;;;;;;;;6250569;28;20220;-68
2023/07/25 14:13:14;;;;;;;4.40;4.00;;;;;;;;;;6269646;28;20198;-68
2023/07/25 14:16:15;;;;;;;4.17;3.73;;;;;;;;;;6235021;28;20202;-68
2023/07/25 14:19:16;;;;;;;5.40;4.00;;;;;;;;;;6266632;28;20186;-68
2023/07/25 14:22:17;;;;;;;4.77;3.87;;;;;;;;;;6251884;28;20197;-67
2023/07/25 14:25:19;;;;;;;3.80;3.50;;;;;;;;;;6248028;28;20225;-67
2023/07/25 14:28:20;;;;;;;3.53;3.23;;;;;;;;;;6255467;28;20251;-66
2023/07/25 14:31:22;;;;;;;2.70;2.47;;;;;;;;;;6246842;28;20243;-67
2023/07/25 14:34:23;;;;;;;4.13;2.47;;;;;;;;;;6270186;28;20202;-67
2023/07/25 14:37:25;;;;;;;2.53;2.33;;;;;;;;;;6250272;28;20224;-67
2023/07/25 14:40:26;;;;;;;2.37;2.17;;;;;;;;;;6246049;28;20217;-67
2023/07/25 14:43:27;;;;;;;3.93;2.47;;;;;;;;;;6242590;28;20366;-67
2023/07/25 14:46:28;;;;;;;3.43;2.47;;;;;;;;;;6255177;28;20198;-67
2023/07/25 14:49:30;;;;;;;2.03;1.87;;;;;;;;;;6243445;28;20237;-67
2023/07/25 14:52:31;;;;;;;3.37;2.53;;;;;;;;;;6239645;28;20187;-67
2023/07/25 14:55:32;;;;;;;2.47;2.27;;;;;;;;;;6238230;28;20193;-67
2023/07/25 14:58:33;;;;;;;3.53;1.90;;;;;;;;;;6260658;28;20216;-67
2023/07/25 15:01:34;;;;;;;2.37;2.23;;;;;;;;;;6238813;28;20193;-67
2023/07/25 15:04:35;;;;;;;2.77;2.47;;;;;;;;;;6252841;28;20277;-67
2023/07/25 15:07:36;;;;;;;2.50;2.07;;;;;;;;;;6258574;28;20193;-67
2023/07/25 15:10:37;;;;;;;4.03;2.20;;;;;;;;;;6253044;28;20217;-67
2023/07/25 15:13:38;;;;;;;2.70;2.10;;;;;;;;;;6279682;28;20200;-66
2023/07/25 15:16:40;;;;;;;2.20;1.90;;;;;;;;;;6259129;28;20184;-66
2023/07/25 15:19:41;;;;;;;2.37;2.17;;;;;;;;;;6245014;28;20190;-66
2023/07/25 15:22:42;;;;;;;2.87;2.10;;;;;;;;;;6251554;28;20202;-66
2023/07/25 15:25:43;;;;;;;3.70;2.00;;;;;;;;;;6244540;28;20186;-66
2023/07/25 15:28:44;;;;;;;2.87;2.13;;;;;;;;;;6242462;28;20251;-66
2023/07/25 15:31:47;;;;;;;2.40;2.20;;;;;;;;;;6261048;28;20209;-66
2023/07/25 15:34:49;;;;;;;2.40;2.20;;;;;;;;;;6261679;28;20201;-66
2023/07/25 15:37:50;;;;;;;2.33;1.80;;;;;;;;;;6251681;28;20248;-66
2023/07/25 15:40:51;;;;;;;2.00;1.80;;;;;;;;;;6258650;28;20193;-66
2023/07/25 15:43:52;;;;;;;3.03;2.50;;;;;;;;;;6256994;28;20193;-66
2023/07/25 15:46:57;;;;;;;3.00;2.03;;;;;;;;;;6246828;28;20190;-66
2023/07/25 15:49:58;;;;;;;3.37;2.27;;;;;;;;;;6246138;28;20249;-66
2023/07/25 15:53:00;;;;;;;2.80;2.30;;;;;;;;;;6252150;28;20182;-66
2023/07/25 15:56:01;;;;;;;3.77;2.30;;;;;;;;;;6254720;28;20182;-66
2023/07/25 15:59:03;;;;;;;2.40;2.20;;;;;;;;;;6255629;28;20198;-66
2023/07/25 16:02:04;;;;;;;2.60;2.40;;;;;;;;;;6264842;28;20190;-66
2023/07/25 16:05:06;;;;;;;3.37;2.47;;;;;;;;;;6238652;28;20185;-66
2023/07/25 16:08:07;;;;;;;2.83;2.60;;;;;;;;;;6268291;28;20222;-66
2023/07/25 16:11:08;;;;;;;2.73;2.47;;;;;;;;;;6248427;28;20199;-66
2023/07/25 16:14:10;;;;;;;3.43;2.10;;;;;;;;;;6243742;28;20221;-66
2023/07/25 16:17:11;;;;;;;2.30;2.13;;;;;;;;;;6252225;28;20272;-66
2023/07/25 16:20:12;;;;;;;2.90;2.60;;;;;;;;;;6256963;28;20182;-66
2023/07/25 16:23:14;;;;;;;3.77;2.37;;;;;;;;;;6261628;28;20200;-66
2023/07/25 16:26:15;;;;;;;3.47;2.50;;;;;;;;;;6275116;28;20244;-66
2023/07/25 16:29:17;;;;;;;2.40;2.20;;;;;;;;;;6249474;28;20242;-66
2023/07/25 16:32:18;;;;;;;2.27;1.97;;;;;;;;;;6248713;28;20225;-66
2023/07/25 16:35:19;;;;;;;3.27;2.80;;;;;;;;;;6252124;28;20280;-66
2023/07/25 16:38:21;;;;;;;3.20;2.40;;;;;;;;;;6249169;28;20252;-66
2023/07/25 16:41:22;;;;;;;4.07;2.53;;;;;;;;;;6243675;28;20194;-69
2023/07/25 16:44:23;;;;;;;5.97;2.70;;;;;;;;;;6248155;28;20193;-69
2023/07/25 16:47:25;;;;;;;3.57;2.13;;;;;;;;;;6245978;28;20217;-69
2023/07/25 16:50:27;;;;;;;4.23;2.70;;;;;;;;;;6242283;28;20313;-69
2023/07/25 16:53:28;;;;;;;7.43;2.30;;;;;;;;;;6237010;28;20241;-69
2023/07/25 16:56:29;;;;;;;3.70;2.83;;;;;;;;;;6253947;28;20186;-69
2023/07/25 16:59:30;;;;;;;3.27;2.60;;;;;;;;;;6255480;28;20182;-69
2023/07/25 17:02:32;;;;;;;4.53;3.07;;;;;;;;;;6248769;28;20293;-69
2023/07/25 17:05:33;;;;;;;4.33;2.90;;;;;;;;;;6245574;28;20217;-69
2023/07/25 17:08:34;;;;;;;2.93;2.60;;;;;;;;;;6263171;28;20355;-69
2023/07/25 17:11:36;;;;;;;4.17;2.67;;;;;;;;;;6248102;28;20186;-69
2023/07/25 17:14:37;;;;;;;4.53;2.70;;;;;;;;;;6252254;28;20190;-69
2023/07/25 17:17:38;;;;;;;3.90;2.47;;;;;;;;;;6251936;28;20197;-69
2023/07/25 17:20:40;;;;;;;4.50;2.90;;;;;;;;;;6267916;28;20251;-69
2023/07/25 17:23:41;;;;;;;7.43;3.23;;;;;;;;;;6270794;28;20194;-69
2023/07/25 17:26:43;;;;;;;3.67;3.10;;;;;;;;;;6249655;28;20286;-69
2023/07/25 17:29:44;;;;;;;4.43;2.63;;;;;;;;;;6262200;28;20317;-69
2023/07/25 17:32:45;;;;;;;3.27;2.60;;;;;;;;;;6268124;28;20188;-69
2023/07/25 17:35:46;;;;;;;3.80;2.97;;;;;;;;;;6247108;28;20193;-69
2023/07/25 17:38:47;;;;;;;3.03;2.83;;;;;;;;;;6268952;28;20195;-69
2023/07/25 17:41:49;;;;;;;4.13;3.27;;;;;;;;;;6250721;28;20272;-69
2023/07/25 17:44:50;;;;;;;8.13;3.87;;;;;;;;;;6245613;28;20206;-69
2023/07/25 17:47:51;;;;;;;3.63;3.33;;;;;;;;;;6242914;28;20975;-69
2023/07/25 17:50:53;;;;;;;4.07;3.30;;;;;;;;;;6246514;28;20193;-69
2023/07/25 17:53:55;;;;;;;4.17;3.13;;;;;;;;;;6247813;28;20190;-69
2023/07/25 17:56:56;;;;;;;3.97;2.67;;;;;;;;;;6264463;28;20209;-69
2023/07/25 17:59:57;;;;;;;5.03;2.87;;;;;;;;;;6248716;28;20193;-69
2023/07/25 18:02:58;;;;;;;6.00;2.70;;;;;;;;;;6253210;28;20200;-69
2023/07/25 18:05:59;;;;;;;3.30;2.83;;;;;;;;;;6243456;28;20240;-69